createdAt,value
2019-03-25T00:02:42.091Z,90.40
2019-03-25T00:05:47.676Z,90.40
2019-03-25T00:09:04.881Z,90.40
2019-03-25T00:12:00.772Z,90.30
2019-03-25T00:15:06.718Z,90.30
2019-03-25T00:18:12.463Z,90.30
2019-03-25T00:21:18.133Z,90.40
2019-03-25T00:24:23.783Z,90.50
2019-03-25T00:27:29.455Z,90.40
2019-03-25T00:30:35.130Z,90.40
2019-03-25T00:33:40.650Z,90.50
2019-03-25T00:36:46.239Z,90.60
2019-03-25T00:39:52.750Z,90.70
2019-03-25T00:42:58.671Z,90.80
2019-03-25T00:46:04.261Z,90.90
2019-03-25T00:49:09.923Z,91.10
2019-03-25T00:52:15.523Z,91.20
2019-03-25T00:55:24.128Z,91.40
2019-03-25T00:58:29.798Z,91.60
2019-03-25T01:01:35.486Z,91.70
2019-03-25T01:04:41.163Z,91.70
2019-03-25T01:07:46.827Z,92.10
2019-03-25T01:10:52.483Z,91.90
2019-03-25T01:13:57.987Z,92.00
2019-03-25T01:17:03.575Z,92.10
2019-03-25T01:20:09.492Z,92.20
2019-03-25T01:23:15.128Z,92.30
2019-03-25T01:26:20.763Z,92.30
2019-03-25T01:29:26.271Z,92.20
2019-03-25T01:32:31.776Z,92.30
2019-03-25T01:35:37.426Z,92.50
2019-03-25T01:38:43.101Z,92.60
2019-03-25T01:41:48.747Z,92.80
2019-03-25T01:44:54.349Z,92.80
2019-03-25T01:48:00.023Z,92.80
2019-03-25T01:51:05.752Z,92.80
2019-03-25T01:54:11.341Z,92.80
2019-03-25T01:57:16.912Z,92.90
2019-03-25T02:00:22.645Z,93.00
2019-03-25T02:03:28.271Z,93.10
2019-03-25T02:06:33.852Z,93.20
2019-03-25T02:09:39.454Z,93.20
2019-03-25T02:12:45.130Z,93.70
2019-03-25T02:15:50.809Z,93.30
2019-03-25T02:18:56.474Z,93.60
2019-03-25T02:22:02.132Z,93.00
2019-03-25T02:25:07.941Z,92.90
2019-03-25T02:28:13.623Z,92.90
2019-03-25T02:31:19.302Z,93.00
2019-03-25T02:34:24.991Z,92.90
2019-03-25T02:37:30.720Z,92.90
2019-03-25T02:40:36.316Z,93.00
2019-03-25T02:43:41.959Z,93.00
2019-03-25T02:46:47.556Z,92.90
2019-03-25T02:49:53.173Z,92.90
2019-03-25T02:52:58.761Z,92.90
2019-03-25T02:56:04.713Z,92.90
2019-03-25T02:59:10.388Z,92.80
2019-03-25T03:02:16.048Z,92.80
2019-03-25T03:05:21.573Z,92.50
2019-03-25T03:08:27.251Z,92.30
2019-03-25T03:11:32.772Z,92.10
2019-03-25T03:14:38.296Z,91.90
2019-03-25T03:17:43.958Z,91.90
2019-03-25T03:20:49.559Z,91.90
2019-03-25T03:23:55.293Z,91.80
2019-03-25T03:27:00.882Z,91.80
2019-03-25T03:30:06.719Z,91.70
2019-03-25T03:33:12.455Z,91.70
2019-03-25T03:36:18.124Z,91.90
2019-03-25T03:39:23.737Z,91.90
2019-03-25T03:42:29.414Z,91.90
2019-03-25T03:45:35.117Z,91.70
2019-03-25T03:48:40.643Z,91.80
2019-03-25T03:51:46.390Z,91.80
2019-03-25T03:54:52.232Z,91.70
2019-03-25T03:57:58.232Z,91.70
2019-03-25T04:01:05.014Z,91.80
2019-03-25T04:04:10.705Z,91.60
2019-03-25T04:07:16.376Z,91.50
2019-03-25T04:10:22.136Z,91.30
2019-03-25T04:13:27.769Z,91.20
2019-03-25T04:16:33.384Z,91.10
2019-03-25T04:19:38.895Z,91.00
2019-03-25T04:22:44.494Z,90.90
2019-03-25T04:25:50.184Z,90.60
2019-03-25T04:28:55.695Z,90.50
2019-03-25T04:32:01.365Z,90.80
2019-03-25T04:35:07.034Z,90.30
2019-03-25T04:38:12.655Z,90.30
2019-03-25T04:41:18.408Z,90.20
2019-03-25T04:44:23.996Z,90.10
2019-03-25T04:47:29.592Z,89.60
2019-03-25T04:50:35.211Z,89.40
2019-03-25T04:53:40.816Z,89.20
2019-03-25T04:56:46.508Z,89.00
2019-03-25T04:59:52.084Z,88.70
2019-03-25T05:02:57.846Z,88.60
2019-03-25T05:06:03.819Z,88.50
2019-03-25T05:09:09.671Z,88.30
2019-03-25T05:12:15.603Z,88.10
2019-03-25T05:15:21.633Z,88.00
2019-03-25T05:18:27.547Z,87.40
2019-03-25T05:21:33.343Z,87.60
2019-03-25T05:24:39.108Z,87.60
2019-03-25T05:27:44.905Z,87.50
2019-03-25T05:30:50.586Z,87.40
2019-03-25T05:33:56.483Z,87.40
2019-03-25T05:37:02.093Z,87.20
2019-03-25T05:40:08.055Z,86.90
2019-03-25T05:43:13.892Z,86.50
2019-03-25T05:46:19.608Z,86.50
2019-03-25T05:49:25.659Z,86.30
2019-03-25T05:52:31.623Z,86.00
2019-03-25T05:55:37.467Z,86.00
2019-03-25T05:58:43.263Z,85.80
2019-03-25T06:01:49.000Z,85.90
2019-03-25T06:04:54.515Z,85.80
2019-03-25T06:08:00.107Z,85.80
2019-03-25T06:11:05.758Z,85.50
2019-03-25T06:14:11.427Z,85.50
2019-03-25T06:17:16.956Z,84.90
2019-03-25T06:20:22.633Z,84.60
2019-03-25T06:23:28.348Z,84.50
2019-03-25T06:26:33.945Z,84.50
2019-03-25T06:29:39.620Z,84.40
2019-03-25T06:32:45.336Z,84.10
2019-03-25T06:35:50.862Z,84.00
2019-03-25T06:38:56.475Z,83.50
2019-03-25T06:42:02.160Z,83.20
2019-03-25T06:45:08.804Z,83.00
2019-03-25T06:48:14.403Z,82.70
2019-03-25T06:51:20.381Z,81.70
2019-03-25T06:54:26.049Z,81.10
2019-03-25T06:57:31.627Z,79.90
2019-03-25T07:00:37.299Z,79.50
2019-03-25T07:03:42.917Z,80.20
2019-03-25T07:06:48.579Z,79.60
2019-03-25T07:09:54.253Z,78.90
2019-03-25T07:13:00.252Z,78.20
2019-03-25T07:16:05.931Z,77.80
2019-03-25T07:19:11.595Z,77.60
2019-03-25T07:22:17.259Z,76.90
2019-03-25T07:25:25.299Z,76.70
2019-03-25T07:28:31.027Z,76.60
2019-03-25T07:31:36.700Z,75.60
2019-03-25T07:34:42.199Z,75.00
2019-03-25T07:37:47.868Z,74.40
2019-03-25T07:40:53.537Z,73.60
2019-03-25T07:43:59.180Z,73.70
2019-03-25T07:47:04.882Z,71.80
2019-03-25T07:50:11.092Z,71.30
2019-03-25T07:53:16.627Z,71.20
2019-03-25T07:56:22.362Z,71.60
2019-03-25T07:59:28.050Z,71.40
2019-03-25T08:02:33.769Z,71.50
2019-03-25T08:05:39.344Z,71.30
2019-03-25T08:08:45.098Z,71.30
2019-03-25T08:11:50.744Z,71.20
2019-03-25T08:14:56.495Z,72.50
2019-03-25T08:18:02.327Z,71.80
2019-03-25T08:21:08.072Z,71.60
2019-03-25T08:24:13.676Z,71.60
2019-03-25T08:27:19.483Z,71.90
2019-03-25T08:30:25.301Z,76.00
2019-03-25T08:33:30.982Z,79.10
2019-03-25T08:36:36.585Z,82.50
2019-03-25T08:39:42.179Z,85.00
2019-03-25T08:42:47.829Z,85.80
2019-03-25T08:45:53.500Z,87.30
2019-03-25T08:48:59.074Z,87.30
2019-03-25T08:52:04.757Z,86.60
2019-03-25T08:55:10.457Z,87.50
2019-03-25T08:58:16.159Z,87.60
2019-03-25T09:01:21.821Z,88.30
2019-03-25T09:04:27.512Z,88.00
2019-03-25T09:07:33.104Z,87.50
2019-03-25T09:10:38.790Z,87.50
2019-03-25T09:13:44.528Z,87.50
2019-03-25T09:16:50.124Z,87.60
2019-03-25T09:19:55.808Z,87.10
2019-03-25T09:23:01.467Z,86.90
2019-03-25T09:26:07.213Z,86.80
2019-03-25T09:29:12.880Z,86.00
2019-03-25T09:32:18.632Z,85.30
2019-03-25T09:35:24.384Z,85.40
2019-03-25T09:38:30.046Z,85.10
2019-03-25T09:41:35.788Z,83.80
2019-03-25T09:44:41.379Z,81.80
2019-03-25T09:47:47.044Z,81.80
2019-03-25T09:50:52.656Z,82.20
2019-03-25T09:53:58.324Z,83.70
2019-03-25T09:57:03.994Z,83.50
2019-03-25T10:00:11.527Z,84.30
2019-03-25T10:03:17.131Z,85.90
2019-03-25T10:06:22.812Z,86.60
2019-03-25T10:09:28.479Z,88.50
2019-03-25T10:12:34.100Z,88.60
2019-03-25T10:15:39.848Z,88.70
2019-03-25T10:18:45.508Z,88.80
2019-03-25T10:21:51.113Z,87.60
2019-03-25T10:24:56.787Z,90.60
2019-03-25T10:28:02.450Z,92.70
2019-03-25T10:31:08.142Z,92.80
2019-03-25T10:34:13.721Z,92.80
2019-03-25T10:37:19.320Z,93.10
2019-03-25T10:40:24.979Z,93.20
2019-03-25T10:43:30.579Z,92.90
2019-03-25T10:46:36.244Z,91.90
2019-03-25T10:49:41.859Z,91.20
2019-03-25T10:52:47.703Z,91.00
2019-03-25T10:55:53.379Z,90.40
2019-03-25T10:58:59.031Z,90.00
2019-03-25T11:02:05.107Z,88.70
2019-03-25T11:05:10.952Z,89.00
2019-03-25T11:08:16.628Z,89.50
2019-03-25T11:11:22.284Z,90.10
2019-03-25T11:14:27.953Z,90.40
2019-03-25T11:17:33.612Z,90.10
2019-03-25T11:20:39.275Z,89.80
2019-03-25T11:23:44.911Z,90.10
2019-03-25T11:26:50.563Z,88.40
2019-03-25T11:29:56.236Z,88.90
2019-03-25T11:33:01.833Z,86.50
2019-03-25T11:36:07.583Z,85.90
2019-03-25T11:39:13.274Z,85.10
2019-03-25T11:42:18.944Z,84.00
2019-03-25T11:45:24.631Z,83.60
2019-03-25T11:48:30.358Z,82.50
2019-03-25T11:51:35.993Z,80.10
2019-03-25T11:54:41.592Z,78.60
2019-03-25T11:57:47.200Z,78.30
2019-03-25T12:00:52.800Z,78.30
2019-03-25T12:03:58.388Z,73.60
2019-03-25T12:07:04.046Z,71.50
2019-03-25T12:10:09.727Z,71.70
2019-03-25T12:13:15.385Z,74.20
2019-03-25T12:16:21.050Z,85.20
2019-03-25T12:19:26.714Z,91.60
2019-03-25T12:22:32.284Z,94.90
2019-03-25T12:25:37.959Z,96.90
2019-03-25T12:28:43.621Z,98.20
2019-03-25T12:31:49.222Z,98.90
2019-03-25T12:34:54.871Z,99.80
2019-03-25T12:38:00.402Z,99.40
2019-03-25T12:41:06.431Z,99.60
2019-03-25T12:44:12.104Z,99.40
2019-03-25T12:47:18.008Z,99.70
2019-03-25T12:50:23.901Z,99.10
2019-03-25T12:53:29.788Z,98.00
2019-03-25T12:56:35.668Z,97.70
2019-03-25T12:59:41.828Z,97.90
2019-03-25T13:02:47.886Z,97.70
2019-03-25T13:05:53.773Z,97.80
2019-03-25T13:09:00.227Z,97.80
2019-03-25T13:12:06.323Z,97.60
2019-03-25T13:15:12.208Z,97.20
2019-03-25T13:18:18.119Z,97.30
2019-03-25T13:21:23.995Z,96.30
2019-03-25T13:24:29.886Z,95.20
2019-03-25T13:27:35.873Z,95.00
2019-03-25T13:30:41.768Z,95.30
2019-03-25T13:33:47.908Z,95.80
2019-03-25T13:36:53.843Z,95.70
2019-03-25T13:39:59.747Z,94.30
2019-03-25T13:43:05.699Z,94.00
2019-03-25T13:46:11.616Z,93.50
2019-03-25T13:49:17.547Z,93.00
2019-03-25T13:52:23.411Z,92.60
2019-03-25T13:55:29.297Z,92.90
2019-03-25T13:58:35.158Z,92.90
2019-03-25T14:01:41.923Z,92.60
2019-03-25T14:04:47.793Z,91.70
2019-03-25T14:07:53.755Z,91.00
2019-03-25T14:11:02.893Z,90.30
2019-03-25T14:14:08.780Z,93.20
2019-03-25T14:17:14.673Z,93.90
2019-03-25T14:20:20.555Z,92.90
2019-03-25T14:23:26.432Z,93.50
2019-03-25T14:26:32.306Z,93.90
2019-03-25T14:29:38.244Z,93.10
2019-03-25T14:32:44.167Z,93.20
2019-03-25T14:35:50.044Z,93.10
2019-03-25T14:38:56.019Z,93.30
2019-03-25T14:42:04.181Z,93.10
2019-03-25T14:45:10.463Z,92.60
2019-03-25T14:48:16.368Z,93.10
2019-03-25T14:51:22.236Z,93.10
2019-03-25T14:54:28.139Z,93.00
2019-03-25T14:57:34.079Z,93.10
2019-03-25T15:00:39.983Z,93.30
2019-03-25T15:03:45.859Z,93.10
2019-03-25T15:06:51.745Z,93.10
2019-03-25T15:09:57.630Z,92.80
2019-03-25T15:13:03.548Z,92.40
2019-03-25T15:16:09.471Z,92.10
2019-03-25T15:19:15.363Z,91.60
2019-03-25T15:22:21.260Z,91.80
2019-03-25T15:25:27.168Z,91.50
2019-03-25T15:28:33.074Z,90.20
2019-03-25T15:31:38.945Z,90.20
2019-03-25T15:34:44.835Z,91.10
2019-03-25T15:37:50.735Z,90.90
2019-03-25T15:40:56.637Z,90.30
2019-03-25T15:44:02.608Z,88.50
2019-03-25T15:47:08.494Z,88.80
2019-03-25T15:50:14.876Z,88.90
2019-03-25T15:53:20.749Z,89.10
2019-03-25T15:56:26.643Z,88.50
2019-03-25T15:59:32.905Z,89.40
2019-03-25T16:02:38.803Z,90.50
2019-03-25T16:05:44.710Z,91.40
2019-03-25T16:08:50.587Z,91.90
2019-03-25T16:11:56.460Z,92.00
2019-03-25T16:15:02.408Z,92.30
2019-03-25T16:18:08.917Z,92.10
2019-03-25T16:21:14.914Z,92.30
2019-03-25T16:24:20.809Z,91.60
2019-03-25T16:27:26.699Z,90.90
2019-03-25T16:30:32.567Z,91.20
2019-03-25T16:33:40.415Z,91.20
2019-03-25T16:36:46.086Z,91.20
2019-03-25T16:39:51.997Z,91.50
2019-03-25T16:42:57.939Z,91.60
2019-03-25T16:46:11.201Z,91.70
2019-03-25T16:49:17.068Z,91.70
2019-03-25T16:52:22.934Z,92.10
2019-03-25T16:55:28.804Z,91.90
2019-03-25T16:58:34.701Z,92.10
2019-03-25T17:01:41.667Z,91.90
2019-03-25T17:04:47.823Z,91.90
2019-03-25T17:07:53.768Z,92.00
2019-03-25T17:10:59.793Z,92.00
2019-03-25T17:14:05.676Z,92.10
2019-03-25T17:17:11.564Z,92.10
2019-03-25T17:20:17.447Z,92.10
2019-03-25T17:23:23.413Z,92.00
2019-03-25T17:26:29.283Z,92.20
2019-03-25T17:29:35.232Z,92.10
2019-03-25T17:32:41.115Z,92.10
2019-03-25T17:35:47.027Z,92.10
2019-03-25T17:38:53.008Z,92.10
2019-03-25T17:41:58.895Z,92.10
2019-03-25T17:45:04.848Z,92.20
2019-03-25T17:48:10.780Z,92.10
2019-03-25T17:51:16.687Z,92.00
2019-03-25T17:54:22.601Z,92.00
2019-03-25T17:57:28.476Z,91.90
2019-03-25T18:01:12.016Z,92.00
2019-03-25T18:04:17.941Z,92.00
2019-03-25T18:07:23.803Z,91.90
2019-03-25T18:10:29.724Z,91.90
2019-03-25T18:13:35.627Z,91.80
2019-03-25T18:16:41.531Z,91.90
2019-03-25T18:19:47.419Z,92.10
2019-03-25T18:22:53.307Z,92.10
2019-03-25T18:25:59.588Z,92.50
2019-03-25T18:29:05.584Z,92.60
2019-03-25T18:32:11.564Z,93.00
2019-03-25T18:35:23.999Z,93.30
2019-03-25T18:38:29.929Z,93.60
2019-03-25T18:41:35.951Z,93.50
2019-03-25T18:44:41.891Z,93.50
2019-03-25T18:47:47.935Z,93.50
2019-03-25T18:50:54.042Z,93.60
2019-03-25T18:53:59.994Z,93.90
2019-03-25T18:57:05.981Z,94.30
2019-03-25T19:00:16.083Z,94.70
2019-03-25T19:03:22.384Z,94.90
2019-03-25T19:06:28.298Z,95.20
2019-03-25T19:09:34.329Z,95.10
2019-03-25T19:12:40.275Z,95.40
2019-03-25T19:15:46.186Z,95.70
2019-03-25T19:18:52.161Z,95.30
2019-03-25T19:21:58.060Z,95.10
2019-03-25T19:25:04.147Z,95.50
2019-03-25T19:28:10.138Z,95.40
2019-03-25T19:31:16.099Z,95.30
2019-03-25T19:34:22.003Z,94.70
2019-03-25T19:37:27.931Z,94.50
2019-03-25T19:40:33.929Z,94.60
2019-03-25T19:43:39.884Z,94.60
2019-03-25T19:46:45.845Z,94.50
2019-03-25T19:49:51.883Z,94.40
2019-03-25T19:52:57.889Z,94.40
2019-03-25T19:56:03.797Z,94.40
2019-03-25T19:59:09.811Z,94.30
2019-03-25T20:02:19.325Z,94.40
2019-03-25T20:05:23.412Z,94.30
2019-03-25T20:08:29.823Z,94.20
2019-03-25T20:11:35.775Z,94.00
2019-03-25T20:14:41.732Z,94.10
2019-03-25T20:17:47.695Z,94.00
2019-03-25T20:20:53.775Z,93.70
2019-03-25T20:23:59.747Z,93.70
2019-03-25T20:27:06.073Z,93.80
2019-03-25T20:30:12.386Z,93.70
2019-03-25T20:33:18.299Z,93.50
2019-03-25T20:36:24.240Z,93.30
2019-03-25T20:39:30.192Z,93.50
2019-03-25T20:42:36.206Z,93.50
2019-03-25T20:45:42.159Z,93.30
2019-03-25T20:48:48.101Z,93.10
2019-03-25T20:51:53.989Z,93.00
2019-03-25T20:54:59.884Z,93.00
2019-03-25T20:58:05.807Z,93.00
2019-03-25T21:01:23.975Z,93.20
2019-03-25T21:04:29.991Z,92.80
2019-03-25T21:07:35.997Z,93.20
2019-03-25T21:10:41.937Z,93.20
2019-03-25T21:13:55.440Z,93.40
2019-03-25T21:17:01.405Z,93.20
2019-03-25T21:20:09.324Z,93.20
2019-03-25T21:23:15.372Z,93.10
2019-03-25T21:26:21.789Z,93.40
2019-03-25T21:29:27.743Z,93.50
2019-03-25T21:32:33.803Z,93.70
2019-03-25T21:35:39.895Z,93.70
2019-03-25T21:38:45.856Z,93.90
2019-03-25T21:41:51.844Z,94.60
2019-03-25T21:44:57.787Z,94.60
2019-03-25T21:48:03.891Z,94.80
2019-03-25T21:51:09.817Z,95.00
2019-03-25T21:54:15.708Z,95.30
2019-03-25T21:57:21.681Z,95.40
2019-03-25T22:00:27.607Z,95.50
2019-03-25T22:03:33.571Z,95.60
2019-03-25T22:06:39.475Z,95.60
2019-03-25T22:09:45.471Z,95.80
2019-03-25T22:12:51.366Z,95.80
2019-03-25T22:15:57.252Z,95.70
2019-03-25T22:19:03.171Z,95.80
2019-03-25T22:22:09.073Z,95.90
2019-03-25T22:25:15.171Z,95.90
2019-03-25T22:28:21.173Z,96.00
2019-03-25T22:31:27.081Z,96.10
2019-03-25T22:34:33.072Z,96.20
2019-03-25T22:37:38.973Z,96.30
2019-03-25T22:40:44.882Z,96.40
2019-03-25T22:43:50.778Z,96.50
2019-03-25T22:46:56.755Z,96.50
2019-03-25T22:50:02.656Z,96.50
2019-03-25T22:53:08.601Z,96.50
2019-03-25T22:56:14.650Z,96.50
2019-03-25T22:59:20.616Z,96.60
2019-03-25T23:02:27.243Z,96.80
2019-03-25T23:05:33.166Z,96.80
2019-03-25T23:08:39.063Z,96.70
2019-03-25T23:11:44.971Z,96.70
2019-03-25T23:14:50.880Z,96.60
2019-03-25T23:17:56.770Z,96.60
2019-03-25T23:21:02.663Z,96.50
2019-03-25T23:24:08.555Z,96.50
2019-03-25T23:27:14.456Z,96.80
2019-03-25T23:30:20.365Z,97.00
2019-03-25T23:33:26.245Z,97.00
2019-03-25T23:36:32.150Z,97.30
2019-03-25T23:39:38.068Z,97.40
2019-03-25T23:42:43.958Z,97.40
2019-03-25T23:45:49.877Z,97.40
2019-03-25T23:48:55.748Z,97.30
2019-03-25T23:52:02.100Z,97.30
2019-03-25T23:55:08.123Z,97.40
2019-03-25T23:58:14.088Z,97.40
